• Join FlightAware (Why Join?)
  • Login
  • US Flag 
12:04PM EDT


 

Airport Tracker/Info


-or-


 

Live Flight TrackerFlight Track Log ✈ DAL2352 ✈ 21-Feb-2014 ✈ KATL - KBTR

Flight Track Log - Related Links

Times and Time Zones

All times are in EST time to prevent confusion due to time zone crossing. See the DAL2352 flight status page for this flight to view local times or setup timezone preferences in your user account.

Time Position Orientation Groundspeed Altitude Reporting Facility
EST Latitude Longitude Course Direction KTS MPH feet Rate Location/Type
02:31PM 33.6494 -84.4781 243° Southwest 448 516 2,700  Level Atlanta Center
02:32PM 33.6617 -84.5456 282° West 349 402 4,900 3,000 Climbing Atlanta Center
02:33PM 33.6781 -84.6306 283° West 267 307 8,800 3,060 Climbing Atlanta Center
02:34PM 33.4469 -84.8767 243° Southwest  Level Estimated
02:34PM 33.6922 -84.7103 282° West 267 307 11,100  Level Atlanta Center
02:35PM 33.3993 -84.9886 243° Southwest  Level Estimated
02:35PM 33.6792 -84.8078 261° West 296 341 12,600  Level Atlanta Center
02:36PM 33.3515 -85.1004 243° Southwest  Level Estimated
02:36PM 33.6325 -84.9219 244° Southwest 323 372 15,300  Level Atlanta Center
02:37PM 33.3036 -85.2121 243° Southwest  Level Estimated
02:37PM 33.5900 -85.0314 245° Southwest 355 409 17,700  Level Atlanta Center
02:38PM 33.5450 -85.1406 244° Southwest 363 418 20,000 2,160 Climbing Atlanta Center
02:39PM 33.5064 -85.2572 248° West 368 423 22,100 1,860 Climbing Atlanta Center
02:40PM 33.4883 -85.3864 261° West 373 429 23,800 2,220 Climbing Atlanta Center
02:41PM 33.4683 -85.5081 259° West 379 436 26,600 2,400 Climbing Atlanta Center
02:42PM 33.4522 -85.6272 261° West 370 426 28,700 1,920 Climbing Atlanta Center
02:43PM 33.4339 -85.7414 259° West 370 426 30,500 1,500 Climbing Atlanta Center
02:44PM 33.4136 -85.8431 257° West 347 399 31,700 720 Climbing Atlanta Center
02:45PM 33.3953 -85.9572 259° West 342 394 32,000 120 Climbing Atlanta Center
02:46PM 33.3789 -86.0736 260° West 342 394 32,000  Level Atlanta Center
02:47PM 33.3581 -86.1828 257° West 348 400 32,000  Level Atlanta Center
02:48PM 33.3414 -86.3017 261° West 356 410 32,000  Level Atlanta Center
02:49PM 33.3228 -86.4106 258° West 356 410 32,000  Level Atlanta Center
02:50PM 33.3064 -86.4994 258° West 350 403 32,000  Level Atlanta Center
02:51PM 33.2869 -86.6283 260° West 355 409 32,000  Level Atlanta Center
02:52PM 33.2678 -86.7419 259° West 355 409 32,000  Level Atlanta Center
02:53PM 33.2508 -86.8506 259° West 350 403 32,000  Level Atlanta Center
02:54PM 33.2231 -86.9639 254° West 354 407 32,000  Level Atlanta Center
02:55PM 33.1869 -87.0819 250° West 354 407 32,000  Level Atlanta Center
02:56PM 33.1325 -87.1669 233° Southwest 354 407 32,000  Level Atlanta Center
02:57PM 33.0861 -87.2717 242° Southwest 354 407 32,000  Level Atlanta Center
02:59PM 32.9958 -87.4694 241° Southwest 354 407 32,000  Level Memphis Center
03:00PM 32.9392 -87.5942 242° Southwest 356 410 32,000  Level Memphis Center
03:01PM 32.8914 -87.6975 241° Southwest 357 411 32,000  Level Memphis Center
03:02PM 32.8450 -87.7994 242° Southwest 354 407 32,000  Level Memphis Center
03:04PM 32.7978 -87.9042 242° Southwest 355 409 32,000  Level Memphis Center
03:05PM 32.7506 -88.0058 241° Southwest 355 409 32,000  Level Memphis Center
03:06PM 32.6939 -88.1289 241° Southwest 355 409 32,000  Level Memphis Center
03:07PM 32.6464 -88.2314 241° Southwest 356 410 32,000  Level Memphis Center
03:08PM 32.5992 -88.3342 241° Southwest 356 410 32,000  Level Memphis Center
03:09PM 32.5511 -88.4378 241° Southwest 358 412 32,000  Level Memphis Center
03:10PM 32.5025 -88.5406 241° Southwest 360 414 32,000  Level Memphis Center
03:11PM 32.4544 -88.6439 241° Southwest 359 413 32,000  Level Memphis Center
03:12PM 32.3967 -88.7675 241° Southwest 360 414 32,000  Level Memphis Center
03:13PM 32.3383 -88.8633 234° Southwest 362 417 32,000  Level Memphis Center
03:14PM 32.2711 -88.9561 229° Southwest 371 427 32,000 -180 Level Memphis Center
03:15PM 32.2050 -89.0464 229° Southwest 368 423 31,700 -1,020 Descending Memphis Center
03:16PM 32.1381 -89.1375 229° Southwest 367 422 29,900 -1,800 Descending Memphis Center
03:17PM 32.0564 -89.2494 229° Southwest 372 428 28,000 -960 Descending Memphis Center
03:18PM 31.9875 -89.3433 229° Southwest 377 434 28,000  Level Memphis Center
03:19PM 31.9167 -89.4386 229° Southwest 382 440 28,000  Level Memphis Center
03:20PM 31.8478 -89.5322 229° Southwest 382 440 28,000  Level Memphis Center
03:21PM 31.8122 -89.5808 229° Southwest 382 440 28,000  Level Houston Center
03:22PM 31.7392 -89.6789 229° Southwest 383 441 28,000  Level Houston Center
03:23PM 31.6556 -89.7886 228° Southwest 378 435 28,000  Level Houston Center
03:24PM 31.5858 -89.8817 229° Southwest 379 436 28,000 -120 Level Houston Center
03:25PM 31.5169 -89.9739 229° Southwest 378 435 27,800 -960 Descending Houston Center
03:26PM 31.4469 -90.0678 229° Southwest 382 440 26,100 -1,680 Descending Houston Center
03:27PM 31.3767 -90.1611 229° Southwest 383 441 24,300 -1,800 Descending Houston Center
03:28PM 31.2919 -90.2728 228° Southwest 384 442 22,400 -1,860 Descending Houston Center
03:29PM 31.2206 -90.3644 228° Southwest 383 441 20,600 -2,100 Descending Houston Center
03:30PM 31.1489 -90.4575 228° Southwest 387 445 18,200 -1,440 Descending Houston Center
03:31PM 31.0756 -90.5500 227° Southwest 389 448 17,700 -780 Descending Houston Center
03:32PM 31.0336 -90.6497 244° Southwest 343 395 16,600 -1,080 Descending Houston Center
03:33PM 31.0006 -90.7611 251° West 306 352 15,500 -1,140 Descending Houston Center
03:34PM 30.9747 -90.8506 251° West 295 339 14,300 -1,140 Descending Houston Center
03:35PM 30.9194 -90.9219 228° Southwest 309 356 13,200 -1,200 Descending Houston Center
03:36PM 30.8600 -90.9778 219° Southwest 280 322 11,800 -1,500 Descending Houston Center
03:37PM 30.7975 -91.0303 216° Southwest 277 319 10,100 -1,440 Descending Houston Center
03:38PM 30.7378 -91.0800 216° Southwest 272 313 8,800 -1,860 Descending Houston Center
03:39PM 30.6672 -91.1408 217° Southwest 266 306 6,400 -1,980 Descending Houston Center
03:40PM 30.6078 -91.1983 220° Southwest 271 312 4,800 -1,200 Descending Houston Center
03:41PM 30.5450 -91.2550 218° Southwest 271 312 4,000 -840 Descending Houston Center
03:43PM 30.5016 -91.2235 79° East  Level FlightAware Approximate
03:50PM 30.5329 -91.1499 79° East  Level Estimated